sensor_id;sensor_type;location;lat;lon;timestamp;temperature;humidity
47921;DHT22;33686;48.770;9.186;2023-03-21T06:17:03;8.70;99.90
47921;DHT22;33686;48.770;9.186;2023-03-21T06:19:30;8.70;99.90
47921;DHT22;33686;48.770;9.186;2023-03-21T06:22:07;8.90;99.90
47921;DHT22;33686;48.770;9.186;2023-03-21T06:24:35;9.00;99.90
47921;DHT22;33686;48.770;9.186;2023-03-21T06:27:01;9.10;99.90
47921;DHT22;33686;48.770;9.186;2023-03-21T06:29:34;9.20;99.90
47921;DHT22;33686;48.770;9.186;2023-03-21T06:32:00;9.30;99.90
47921;DHT22;33686;48.770;9.186;2023-03-21T06:34:26;9.30;99.90
47921;DHT22;33686;48.770;9.186;2023-03-21T06:36:52;9.40;99.90
47921;DHT22;33686;48.770;9.186;2023-03-21T06:39:23;9.50;99.90
47921;DHT22;33686;48.770;9.186;2023-03-21T06:41:49;9.70;99.90
47921;DHT22;33686;48.770;9.186;2023-03-21T06:44:15;9.80;99.90
47921;DHT22;33686;48.770;9.186;2023-03-21T06:46:50;9.80;99.90
47921;DHT22;33686;48.770;9.186;2023-03-21T06:49:18;9.90;99.90
47921;DHT22;33686;48.770;9.186;2023-03-21T06:51:43;9.90;99.90
47921;DHT22;33686;48.770;9.186;2023-03-21T06:54:15;10.00;99.90
47921;DHT22;33686;48.770;9.186;2023-03-21T06:56:51;10.10;99.90
47921;DHT22;33686;48.770;9.186;2023-03-21T06:59:22;10.30;99.90
47921;DHT22;33686;48.770;9.186;2023-03-21T07:01:59;10.60;99.90
47921;DHT22;33686;48.770;9.186;2023-03-21T07:04:25;11.80;99.90
47921;DHT22;33686;48.770;9.186;2023-03-21T07:06:53;13.00;99.90
47921;DHT22;33686;48.770;9.186;2023-03-21T07:09:20;14.30;99.90
47921;DHT22;33686;48.770;9.186;2023-03-21T07:11:49;15.50;99.90
47921;DHT22;33686;48.770;9.186;2023-03-21T07:14:18;16.10;99.90
47921;DHT22;33686;48.770;9.186;2023-03-21T07:16:44;16.20;99.90
47921;DHT22;33686;48.770;9.186;2023-03-21T07:19:11;16.40;99.90
47921;DHT22;33686;48.770;9.186;2023-03-21T07:21:37;17.10;99.90
47921;DHT22;33686;48.770;9.186;2023-03-21T07:24:03;17.90;99.90
47921;DHT22;33686;48.770;9.186;2023-03-21T07:26:28;18.00;99.90
47921;DHT22;33686;48.770;9.186;2023-03-21T07:28:54;18.30;99.90
47921;DHT22;33686;48.770;9.186;2023-03-21T07:31:19;17.90;99.90
47921;DHT22;33686;48.770;9.186;2023-03-21T07:33:47;17.50;99.90
47921;DHT22;33686;48.770;9.186;2023-03-21T07:36:13;16.20;99.90
47921;DHT22;33686;48.770;9.186;2023-03-21T07:38:40;15.50;99.90
47921;DHT22;33686;48.770;9.186;2023-03-21T07:41:06;15.60;99.90
47921;DHT22;33686;48.770;9.186;2023-03-21T07:43:33;15.10;99.90
47921;DHT22;33686;48.770;9.186;2023-03-21T07:45:58;15.90;99.90
47921;DHT22;33686;48.770;9.186;2023-03-21T07:48:25;16.80;99.90
47921;DHT22;33686;48.770;9.186;2023-03-21T07:50:51;17.40;99.90
47921;DHT22;33686;48.770;9.186;2023-03-21T07:53:17;17.70;99.90
47921;DHT22;33686;48.770;9.186;2023-03-21T07:55:43;18.50;99.90
47921;DHT22;33686;48.770;9.186;2023-03-21T07:58:08;19.80;98.60
47921;DHT22;33686;48.770;9.186;2023-03-21T08:00:34;20.10;98.40
47921;DHT22;33686;48.770;9.186;2023-03-21T08:02:59;18.70;98.80
47921;DHT22;33686;48.770;9.186;2023-03-21T08:05:29;18.30;99.50
47921;DHT22;33686;48.770;9.186;2023-03-21T08:07:55;18.70;99.30
47921;DHT22;33686;48.770;9.186;2023-03-21T08:10:21;18.70;99.30
47921;DHT22;33686;48.770;9.186;2023-03-21T08:12:47;19.30;99.00
47921;DHT22;33686;48.770;9.186;2023-03-21T08:15:13;19.10;98.40
47921;DHT22;33686;48.770;9.186;2023-03-21T08:17:39;19.30;98.30
47921;DHT22;33686;48.770;9.186;2023-03-21T08:20:06;19.70;97.60
47921;DHT22;33686;48.770;9.186;2023-03-21T08:22:33;20.00;97.00
47921;DHT22;33686;48.770;9.186;2023-03-21T08:24:59;20.30;96.50
47921;DHT22;33686;48.770;9.186;2023-03-21T08:27:24;20.40;96.10
47921;DHT22;33686;48.770;9.186;2023-03-21T08:29:50;20.60;96.00
47921;DHT22;33686;48.770;9.186;2023-03-21T08:32:17;20.70;95.70
47921;DHT22;33686;48.770;9.186;2023-03-21T08:34:42;20.60;95.10
47921;DHT22;33686;48.770;9.186;2023-03-21T08:37:08;21.00;94.70
47921;DHT22;33686;48.770;9.186;2023-03-21T08:39:33;21.70;93.50
47921;DHT22;33686;48.770;9.186;2023-03-21T08:41:59;21.70;92.90
47921;DHT22;33686;48.770;9.186;2023-03-21T08:44:25;22.40;92.30
47921;DHT22;33686;48.770;9.186;2023-03-21T08:46:51;22.50;91.50
47921;DHT22;33686;48.770;9.186;2023-03-21T08:49:16;22.20;91.80
47921;DHT22;33686;48.770;9.186;2023-03-21T08:51:42;21.90;92.00
47921;DHT22;33686;48.770;9.186;2023-03-21T08:54:19;21.60;91.90
47921;DHT22;33686;48.770;9.186;2023-03-21T08:56:45;21.20;92.00
47921;DHT22;33686;48.770;9.186;2023-03-21T08:59:10;21.40;91.60
47921;DHT22;33686;48.770;9.186;2023-03-21T09:01:36;21.70;91.60
47921;DHT22;33686;48.770;9.186;2023-03-21T09:04:01;21.10;91.50
47921;DHT22;33686;48.770;9.186;2023-03-21T09:06:28;20.50;91.50
47921;DHT22;33686;48.770;9.186;2023-03-21T09:08:54;21.90;90.70
47921;DHT22;33686;48.770;9.186;2023-03-21T09:11:21;21.60;90.40
47921;DHT22;33686;48.770;9.186;2023-03-21T09:13:46;21.10;91.00
47921;DHT22;33686;48.770;9.186;2023-03-21T09:16:12;20.50;90.30
47921;DHT22;33686;48.770;9.186;2023-03-21T09:18:37;20.80;87.60
47921;DHT22;33686;48.770;9.186;2023-03-21T09:21:11;20.70;86.80
47921;DHT22;33686;48.770;9.186;2023-03-21T09:23:39;20.70;86.00
47921;DHT22;33686;48.770;9.186;2023-03-21T09:26:05;20.40;88.30
47921;DHT22;33686;48.770;9.186;2023-03-21T09:28:31;20.30;88.50
47921;DHT22;33686;48.770;9.186;2023-03-21T09:30:57;20.20;89.20
47921;DHT22;33686;48.770;9.186;2023-03-21T09:33:24;19.90;89.80
47921;DHT22;33686;48.770;9.186;2023-03-21T09:35:52;19.50;89.70
47921;DHT22;33686;48.770;9.186;2023-03-21T09:38:17;18.90;90.30
47921;DHT22;33686;48.770;9.186;2023-03-21T09:45:52;18.50;91.00
47921;DHT22;33686;48.770;9.186;2023-03-21T09:48:23;18.60;90.80
47921;DHT22;33686;48.770;9.186;2023-03-21T09:50:54;18.90;90.80
47921;DHT22;33686;48.770;9.186;2023-03-21T09:53:54;19.20;90.90
47921;DHT22;33686;48.770;9.186;2023-03-21T09:56:13;18.70;91.20
47921;DHT22;33686;48.770;9.186;2023-03-21T09:58:40;18.50;91.50
47921;DHT22;33686;48.770;9.186;2023-03-21T10:03:34;18.30;91.60
47921;DHT22;33686;48.770;9.186;2023-03-21T10:06:04;18.10;92.00
47921;DHT22;33686;48.770;9.186;2023-03-21T10:08:34;18.50;92.30
47921;DHT22;33686;48.770;9.186;2023-03-21T10:11:06;18.30;92.30
47921;DHT22;33686;48.770;9.186;2023-03-21T10:13:36;18.30;92.30
47921;DHT22;33686;48.770;9.186;2023-03-21T10:16:09;18.10;92.90
47921;DHT22;33686;48.770;9.186;2023-03-21T10:18:38;18.30;93.10
47921;DHT22;33686;48.770;9.186;2023-03-21T10:21:07;18.40;92.90
47921;DHT22;33686;48.770;9.186;2023-03-21T10:23:36;18.00;93.30
47921;DHT22;33686;48.770;9.186;2023-03-21T10:26:02;18.10;93.60
47921;DHT22;33686;48.770;9.186;2023-03-21T10:28:32;18.30;93.10
47921;DHT22;33686;48.770;9.186;2023-03-21T10:30:59;18.20;93.50
47921;DHT22;33686;48.770;9.186;2023-03-21T10:33:27;18.00;93.70
47921;DHT22;33686;48.770;9.186;2023-03-21T10:35:54;17.40;94.50
47921;DHT22;33686;48.770;9.186;2023-03-21T10:38:22;17.20;94.90
47921;DHT22;33686;48.770;9.186;2023-03-21T10:40:48;17.40;94.70
47921;DHT22;33686;48.770;9.186;2023-03-21T10:43:15;17.30;94.70
47921;DHT22;33686;48.770;9.186;2023-03-21T10:45:41;17.10;95.20
47921;DHT22;33686;48.770;9.186;2023-03-21T10:48:06;16.90;95.00
47921;DHT22;33686;48.770;9.186;2023-03-21T10:50:32;17.20;95.00
47921;DHT22;33686;48.770;9.186;2023-03-21T10:52:58;17.50;94.60
47921;DHT22;33686;48.770;9.186;2023-03-21T10:55:25;17.60;94.30
47921;DHT22;33686;48.770;9.186;2023-03-21T10:58:03;17.60;94.10
47921;DHT22;33686;48.770;9.186;2023-03-21T11:00:39;17.80;94.00
47921;DHT22;33686;48.770;9.186;2023-03-21T11:03:21;18.20;93.70
47921;DHT22;33686;48.770;9.186;2023-03-21T11:05:47;18.20;93.50
47921;DHT22;33686;48.770;9.186;2023-03-21T11:08:17;18.10;93.70
47921;DHT22;33686;48.770;9.186;2023-03-21T11:13:25;18.20;93.20
47921;DHT22;33686;48.770;9.186;2023-03-21T11:18:21;18.00;93.10
47921;DHT22;33686;48.770;9.186;2023-03-21T11:20:48;18.00;93.40
47921;DHT22;33686;48.770;9.186;2023-03-21T11:23:14;18.10;93.40
47921;DHT22;33686;48.770;9.186;2023-03-21T11:25:40;17.90;93.50
47921;DHT22;33686;48.770;9.186;2023-03-21T11:28:17;17.90;93.70
47921;DHT22;33686;48.770;9.186;2023-03-21T11:30:54;17.90;93.50
47921;DHT22;33686;48.770;9.186;2023-03-21T11:33:21;17.90;93.70
47921;DHT22;33686;48.770;9.186;2023-03-21T11:38:33;18.10;93.10
47921;DHT22;33686;48.770;9.186;2023-03-21T11:41:01;18.10;92.80
47921;DHT22;33686;48.770;9.186;2023-03-21T11:43:28;18.10;92.90
47921;DHT22;33686;48.770;9.186;2023-03-21T11:48:26;17.90;92.40
47921;DHT22;33686;48.770;9.186;2023-03-21T11:50:54;17.90;92.40
47921;DHT22;33686;48.770;9.186;2023-03-21T11:58:56;17.80;92.40
47921;DHT22;33686;48.770;9.186;2023-03-21T12:01:30;17.70;92.40
47921;DHT22;33686;48.770;9.186;2023-03-21T12:06:41;17.90;92.00
47921;DHT22;33686;48.770;9.186;2023-03-21T12:09:13;17.80;92.10
47921;DHT22;33686;48.770;9.186;2023-03-21T12:11:42;17.80;91.70
47921;DHT22;33686;48.770;9.186;2023-03-21T12:14:16;17.80;91.90
47921;DHT22;33686;48.770;9.186;2023-03-21T12:16:49;17.90;91.60
47921;DHT22;33686;48.770;9.186;2023-03-21T12:19:32;17.90;91.60
47921;DHT22;33686;48.770;9.186;2023-03-21T12:24:39;17.80;92.10
47921;DHT22;33686;48.770;9.186;2023-03-21T12:35:03;17.80;92.30
47921;DHT22;33686;48.770;9.186;2023-03-21T12:40:06;17.60;91.80
47921;DHT22;33686;48.770;9.186;2023-03-21T12:42:46;17.60;91.70
47921;DHT22;33686;48.770;9.186;2023-03-21T12:45:16;17.20;91.70
47921;DHT22;33686;48.770;9.186;2023-03-21T12:47:44;17.00;92.30
47921;DHT22;33686;48.770;9.186;2023-03-21T12:50:14;16.90;94.60
47921;DHT22;33686;48.770;9.186;2023-03-21T12:52:42;16.90;95.20
47921;DHT22;33686;48.770;9.186;2023-03-21T12:55:31;17.40;94.80
47921;DHT22;33686;48.770;9.186;2023-03-21T12:57:57;17.30;95.10
47921;DHT22;33686;48.770;9.186;2023-03-21T13:00:27;17.20;93.50
47921;DHT22;33686;48.770;9.186;2023-03-21T13:08:12;17.10;95.90
47921;DHT22;33686;48.770;9.186;2023-03-21T13:10:40;17.00;95.80
47921;DHT22;33686;48.770;9.186;2023-03-21T13:13:11;16.80;96.00
47921;DHT22;33686;48.770;9.186;2023-03-21T13:15:56;16.50;96.70
47921;DHT22;33686;48.770;9.186;2023-03-21T13:20:55;16.70;96.10
47921;DHT22;33686;48.770;9.186;2023-03-21T13:23:23;16.80;95.60
47921;DHT22;33686;48.770;9.186;2023-03-21T13:25:49;16.90;95.60
47921;DHT22;33686;48.770;9.186;2023-03-21T13:28:17;17.20;95.10
47921;DHT22;33686;48.770;9.186;2023-03-21T13:30:43;17.40;95.00
47921;DHT22;33686;48.770;9.186;2023-03-21T13:33:12;17.40;94.80
47921;DHT22;33686;48.770;9.186;2023-03-21T13:35:39;17.30;94.40
47921;DHT22;33686;48.770;9.186;2023-03-21T13:45:54;17.30;94.10
47921;DHT22;33686;48.770;9.186;2023-03-21T13:48:39;17.30;93.80
47921;DHT22;33686;48.770;9.186;2023-03-21T13:51:05;17.30;94.00
47921;DHT22;33686;48.770;9.186;2023-03-21T13:53:32;16.90;93.80
47921;DHT22;33686;48.770;9.186;2023-03-21T13:58:40;16.80;93.70
47921;DHT22;33686;48.770;9.186;2023-03-21T14:01:28;17.00;93.20
47921;DHT22;33686;48.770;9.186;2023-03-21T14:03:59;17.00;94.30
47921;DHT22;33686;48.770;9.186;2023-03-21T14:06:32;16.90;95.20
47921;DHT22;33686;48.770;9.186;2023-03-21T14:08:58;16.80;95.70
47921;DHT22;33686;48.770;9.186;2023-03-21T14:11:24;16.50;96.30
47921;DHT22;33686;48.770;9.186;2023-03-21T14:13:50;16.70;96.10
47921;DHT22;33686;48.770;9.186;2023-03-21T14:16:17;16.40;96.20
47921;DHT22;33686;48.770;9.186;2023-03-21T14:18:51;16.40;96.40
47921;DHT22;33686;48.770;9.186;2023-03-21T14:21:21;16.30;96.60
47921;DHT22;33686;48.770;9.186;2023-03-21T14:23:54;16.20;97.20
47921;DHT22;33686;48.770;9.186;2023-03-21T14:26:20;16.10;97.40
47921;DHT22;33686;48.770;9.186;2023-03-21T14:28:47;16.30;97.50
47921;DHT22;33686;48.770;9.186;2023-03-21T14:31:14;16.10;97.10
47921;DHT22;33686;48.770;9.186;2023-03-21T14:33:41;16.20;97.20
47921;DHT22;33686;48.770;9.186;2023-03-21T14:36:33;16.00;97.80
47921;DHT22;33686;48.770;9.186;2023-03-21T14:39:04;16.20;97.20
47921;DHT22;33686;48.770;9.186;2023-03-21T14:41:30;16.20;97.20
47921;DHT22;33686;48.770;9.186;2023-03-21T14:44:16;16.10;97.30
47921;DHT22;33686;48.770;9.186;2023-03-21T14:46:42;16.20;97.00
47921;DHT22;33686;48.770;9.186;2023-03-21T14:49:10;16.30;97.10
47921;DHT22;33686;48.770;9.186;2023-03-21T14:51:36;16.20;97.60
47921;DHT22;33686;48.770;9.186;2023-03-21T14:54:01;16.30;97.60
47921;DHT22;33686;48.770;9.186;2023-03-21T14:56:27;16.30;97.80
47921;DHT22;33686;48.770;9.186;2023-03-21T14:58:52;16.10;98.00
47921;DHT22;33686;48.770;9.186;2023-03-21T15:01:26;16.00;98.30
47921;DHT22;33686;48.770;9.186;2023-03-21T15:03:53;16.00;98.30
47921;DHT22;33686;48.770;9.186;2023-03-21T15:06:18;15.80;98.10
47921;DHT22;33686;48.770;9.186;2023-03-21T15:08:57;15.80;98.10
47921;DHT22;33686;48.770;9.186;2023-03-21T15:11:30;15.80;98.40
47921;DHT22;33686;48.770;9.186;2023-03-21T15:13:56;15.80;98.40
47921;DHT22;33686;48.770;9.186;2023-03-21T15:16:23;15.80;98.40
47921;DHT22;33686;48.770;9.186;2023-03-21T15:18:48;15.80;98.60
47921;DHT22;33686;48.770;9.186;2023-03-21T15:24:26;16.00;98.00
47921;DHT22;33686;48.770;9.186;2023-03-21T15:26:56;16.10;98.00
47921;DHT22;33686;48.770;9.186;2023-03-21T15:29:22;16.10;98.00
47921;DHT22;33686;48.770;9.186;2023-03-21T15:31:48;15.80;98.40
47921;DHT22;33686;48.770;9.186;2023-03-21T15:34:48;15.90;98.60
47921;DHT22;33686;48.770;9.186;2023-03-21T15:37:07;15.70;98.70
47921;DHT22;33686;48.770;9.186;2023-03-21T15:39:33;15.60;99.00
47921;DHT22;33686;48.770;9.186;2023-03-21T15:42:21;15.60;99.40
47921;DHT22;33686;48.770;9.186;2023-03-21T15:44:47;15.50;99.90
47921;DHT22;33686;48.770;9.186;2023-03-21T15:47:13;15.60;99.90
47921;DHT22;33686;48.770;9.186;2023-03-21T15:49:39;15.60;99.90
47921;DHT22;33686;48.770;9.186;2023-03-21T15:52:09;15.50;99.90
47921;DHT22;33686;48.770;9.186;2023-03-21T15:57:05;15.30;99.90
47921;DHT22;33686;48.770;9.186;2023-03-21T15:59:44;15.10;99.90
47921;DHT22;33686;48.770;9.186;2023-03-21T16:02:13;15.10;99.90
47921;DHT22;33686;48.770;9.186;2023-03-21T16:04:53;15.00;99.90
47921;DHT22;33686;48.770;9.186;2023-03-21T16:07:19;14.90;99.90
47921;DHT22;33686;48.770;9.186;2023-03-21T16:09:45;14.90;99.90
47921;DHT22;33686;48.770;9.186;2023-03-21T16:12:11;14.80;99.90
47921;DHT22;33686;48.770;9.186;2023-03-21T16:14:37;14.80;99.90
47921;DHT22;33686;48.770;9.186;2023-03-21T16:17:16;14.80;99.90
47921;DHT22;33686;48.770;9.186;2023-03-21T16:19:46;14.80;99.90
47921;DHT22;33686;48.770;9.186;2023-03-21T16:22:12;14.80;99.90
47921;DHT22;33686;48.770;9.186;2023-03-21T16:24:37;14.60;99.90
47921;DHT22;33686;48.770;9.186;2023-03-21T16:27:03;14.50;99.90
47921;DHT22;33686;48.770;9.186;2023-03-21T16:29:28;14.50;99.90
47921;DHT22;33686;48.770;9.186;2023-03-21T16:31:54;14.60;99.90
47921;DHT22;33686;48.770;9.186;2023-03-21T16:34:20;14.50;99.90
47921;DHT22;33686;48.770;9.186;2023-03-21T16:36:46;14.40;99.90
47921;DHT22;33686;48.770;9.186;2023-03-21T16:39:21;14.50;99.90
47921;DHT22;33686;48.770;9.186;2023-03-21T16:41:48;14.40;99.90
47921;DHT22;33686;48.770;9.186;2023-03-21T16:44:15;14.40;99.90
47921;DHT22;33686;48.770;9.186;2023-03-21T16:46:40;14.40;99.90
47921;DHT22;33686;48.770;9.186;2023-03-21T16:49:13;14.30;99.90
47921;DHT22;33686;48.770;9.186;2023-03-21T16:51:41;14.20;99.90
47921;DHT22;33686;48.770;9.186;2023-03-21T16:54:06;14.20;99.90
47921;DHT22;33686;48.770;9.186;2023-03-21T16:56:36;14.20;99.90
47921;DHT22;33686;48.770;9.186;2023-03-21T16:59:02;14.20;99.90
47921;DHT22;33686;48.770;9.186;2023-03-21T17:01:28;14.20;99.90
47921;DHT22;33686;48.770;9.186;2023-03-21T17:03:55;14.20;99.90
47921;DHT22;33686;48.770;9.186;2023-03-21T17:06:23;14.20;99.90
47921;DHT22;33686;48.770;9.186;2023-03-21T17:08:49;14.10;99.90
47921;DHT22;33686;48.770;9.186;2023-03-21T17:11:16;14.10;99.90
47921;DHT22;33686;48.770;9.186;2023-03-21T17:13:44;14.10;99.90
47921;DHT22;33686;48.770;9.186;2023-03-21T17:16:14;14.10;99.90
47921;DHT22;33686;48.770;9.186;2023-03-21T17:18:40;14.00;99.90
47921;DHT22;33686;48.770;9.186;2023-03-21T17:21:12;13.90;99.90
47921;DHT22;33686;48.770;9.186;2023-03-21T17:23:38;13.90;99.90
47921;DHT22;33686;48.770;9.186;2023-03-21T17:26:04;14.00;99.90
47921;DHT22;33686;48.770;9.186;2023-03-21T17:28:30;14.00;99.90
47921;DHT22;33686;48.770;9.186;2023-03-21T17:30:55;14.00;99.90
47921;DHT22;33686;48.770;9.186;2023-03-21T17:33:21;14.00;99.90
47921;DHT22;33686;48.770;9.186;2023-03-21T17:35:47;13.90;99.90
47921;DHT22;33686;48.770;9.186;2023-03-21T17:38:15;13.90;99.90
47921;DHT22;33686;48.770;9.186;2023-03-21T17:40:41;13.90;99.90
47921;DHT22;33686;48.770;9.186;2023-03-21T17:43:09;13.80;99.90
47921;DHT22;33686;48.770;9.186;2023-03-21T17:45:37;13.70;99.90
47921;DHT22;33686;48.770;9.186;2023-03-21T17:48:03;13.70;99.90
47921;DHT22;33686;48.770;9.186;2023-03-21T17:50:30;13.70;99.90
47921;DHT22;33686;48.770;9.186;2023-03-21T17:52:58;13.60;99.90
47921;DHT22;33686;48.770;9.186;2023-03-21T17:55:24;13.60;99.90
47921;DHT22;33686;48.770;9.186;2023-03-21T17:57:50;13.50;99.90
47921;DHT22;33686;48.770;9.186;2023-03-21T18:00:17;13.50;99.90
47921;DHT22;33686;48.770;9.186;2023-03-21T18:02:44;13.50;99.90
47921;DHT22;33686;48.770;9.186;2023-03-21T18:05:09;13.50;99.90
47921;DHT22;33686;48.770;9.186;2023-03-21T18:07:35;13.50;99.90
47921;DHT22;33686;48.770;9.186;2023-03-21T18:10:01;13.60;99.90
47921;DHT22;33686;48.770;9.186;2023-03-21T18:12:27;13.60;99.90
47921;DHT22;33686;48.770;9.186;2023-03-21T18:14:52;13.50;99.90
47921;DHT22;33686;48.770;9.186;2023-03-21T18:17:18;13.40;99.90
47921;DHT22;33686;48.770;9.186;2023-03-21T18:19:45;13.40;99.90
47921;DHT22;33686;48.770;9.186;2023-03-21T18:22:12;13.20;99.90
47921;DHT22;33686;48.770;9.186;2023-03-21T18:24:37;13.30;99.90
47921;DHT22;33686;48.770;9.186;2023-03-21T18:27:03;13.30;99.90
47921;DHT22;33686;48.770;9.186;2023-03-21T18:29:29;13.20;99.90
47921;DHT22;33686;48.770;9.186;2023-03-21T18:31:57;13.10;99.90
47921;DHT22;33686;48.770;9.186;2023-03-21T18:34:28;13.10;99.90
47921;DHT22;33686;48.770;9.186;2023-03-21T18:36:53;13.00;99.90
47921;DHT22;33686;48.770;9.186;2023-03-21T18:39:19;12.80;99.90
47921;DHT22;33686;48.770;9.186;2023-03-21T18:41:45;12.70;99.90
47921;DHT22;33686;48.770;9.186;2023-03-21T18:44:11;12.70;99.90
47921;DHT22;33686;48.770;9.186;2023-03-21T18:46:36;12.60;99.90
47921;DHT22;33686;48.770;9.186;2023-03-21T18:49:04;12.60;99.90
47921;DHT22;33686;48.770;9.186;2023-03-21T18:51:30;12.60;99.90
47921;DHT22;33686;48.770;9.186;2023-03-21T18:53:55;12.70;99.90
47921;DHT22;33686;48.770;9.186;2023-03-21T18:56:22;12.80;99.90
47921;DHT22;33686;48.770;9.186;2023-03-21T18:58:48;12.80;99.90
47921;DHT22;33686;48.770;9.186;2023-03-21T19:01:13;12.80;99.90
47921;DHT22;33686;48.770;9.186;2023-03-21T19:03:39;12.80;99.90
47921;DHT22;33686;48.770;9.186;2023-03-21T19:06:05;12.90;99.90
47921;DHT22;33686;48.770;9.186;2023-03-21T19:08:31;12.90;99.90
47921;DHT22;33686;48.770;9.186;2023-03-21T19:10:59;12.90;99.90
47921;DHT22;33686;48.770;9.186;2023-03-21T19:13:24;13.00;99.90
47921;DHT22;33686;48.770;9.186;2023-03-21T19:15:50;13.00;99.90
47921;DHT22;33686;48.770;9.186;2023-03-21T19:18:16;12.90;99.90
47921;DHT22;33686;48.770;9.186;2023-03-21T19:20:42;12.80;99.90
47921;DHT22;33686;48.770;9.186;2023-03-21T19:23:08;12.60;99.90
47921;DHT22;33686;48.770;9.186;2023-03-21T19:25:34;12.50;99.90
47921;DHT22;33686;48.770;9.186;2023-03-21T19:27:59;12.50;99.90
47921;DHT22;33686;48.770;9.186;2023-03-21T19:30:25;12.50;99.90
47921;DHT22;33686;48.770;9.186;2023-03-21T19:32:50;12.40;99.90
47921;DHT22;33686;48.770;9.186;2023-03-21T19:35:16;12.60;99.90
47921;DHT22;33686;48.770;9.186;2023-03-21T19:37:42;12.60;99.90
47921;DHT22;33686;48.770;9.186;2023-03-21T19:40:08;12.80;99.90
47921;DHT22;33686;48.770;9.186;2023-03-21T19:42:34;12.80;99.90
47921;DHT22;33686;48.770;9.186;2023-03-21T19:45:01;12.80;99.90
47921;DHT22;33686;48.770;9.186;2023-03-21T19:47:27;12.90;99.90
47921;DHT22;33686;48.770;9.186;2023-03-21T19:49:52;13.00;99.90
47921;DHT22;33686;48.770;9.186;2023-03-21T19:52:19;12.80;99.90
47921;DHT22;33686;48.770;9.186;2023-03-21T19:54:45;12.80;99.90
47921;DHT22;33686;48.770;9.186;2023-03-21T19:57:11;12.80;99.90
47921;DHT22;33686;48.770;9.186;2023-03-21T19:59:37;12.80;99.90
47921;DHT22;33686;48.770;9.186;2023-03-21T20:02:03;12.70;99.90
47921;DHT22;33686;48.770;9.186;2023-03-21T20:04:28;12.50;99.90
47921;DHT22;33686;48.770;9.186;2023-03-21T20:06:54;12.30;99.90
47921;DHT22;33686;48.770;9.186;2023-03-21T20:09:22;12.20;99.90
47921;DHT22;33686;48.770;9.186;2023-03-21T20:11:48;12.20;99.90
47921;DHT22;33686;48.770;9.186;2023-03-21T20:14:14;12.10;99.90
47921;DHT22;33686;48.770;9.186;2023-03-21T20:16:40;12.20;99.90
47921;DHT22;33686;48.770;9.186;2023-03-21T20:19:06;12.10;99.90
47921;DHT22;33686;48.770;9.186;2023-03-21T20:21:34;12.10;99.90
47921;DHT22;33686;48.770;9.186;2023-03-21T20:24:00;12.20;99.90
47921;DHT22;33686;48.770;9.186;2023-03-21T20:26:26;12.30;99.90
47921;DHT22;33686;48.770;9.186;2023-03-21T20:28:51;12.50;99.90
47921;DHT22;33686;48.770;9.186;2023-03-21T20:31:22;12.50;99.90
47921;DHT22;33686;48.770;9.186;2023-03-21T20:33:48;12.40;99.90
47921;DHT22;33686;48.770;9.186;2023-03-21T20:36:15;12.30;99.90
47921;DHT22;33686;48.770;9.186;2023-03-21T20:38:41;12.30;99.90
47921;DHT22;33686;48.770;9.186;2023-03-21T20:41:07;12.40;99.90
47921;DHT22;33686;48.770;9.186;2023-03-21T20:43:33;12.40;99.90
47921;DHT22;33686;48.770;9.186;2023-03-21T20:46:01;12.40;99.90
47921;DHT22;33686;48.770;9.186;2023-03-21T20:48:28;12.40;99.90
47921;DHT22;33686;48.770;9.186;2023-03-21T20:51:04;12.50;99.90
47921;DHT22;33686;48.770;9.186;2023-03-21T20:53:30;12.50;99.90
47921;DHT22;33686;48.770;9.186;2023-03-21T20:55:56;12.50;99.90
47921;DHT22;33686;48.770;9.186;2023-03-21T20:58:36;12.50;99.90
47921;DHT22;33686;48.770;9.186;2023-03-21T21:01:02;12.60;99.90
47921;DHT22;33686;48.770;9.186;2023-03-21T21:03:28;12.50;99.90
47921;DHT22;33686;48.770;9.186;2023-03-21T21:05:54;12.30;99.90
47921;DHT22;33686;48.770;9.186;2023-03-21T21:08:19;12.30;99.90
47921;DHT22;33686;48.770;9.186;2023-03-21T21:10:45;12.10;99.90
47921;DHT22;33686;48.770;9.186;2023-03-21T21:13:16;12.10;99.90
47921;DHT22;33686;48.770;9.186;2023-03-21T21:15:43;12.10;99.90
47921;DHT22;33686;48.770;9.186;2023-03-21T21:18:08;12.20;99.90
47921;DHT22;33686;48.770;9.186;2023-03-21T21:20:34;12.20;99.90
47921;DHT22;33686;48.770;9.186;2023-03-21T21:23:00;12.10;99.90
47921;DHT22;33686;48.770;9.186;2023-03-21T21:25:27;12.00;99.90
47921;DHT22;33686;48.770;9.186;2023-03-21T21:27:53;11.90;99.90
47921;DHT22;33686;48.770;9.186;2023-03-21T21:35:42;11.80;99.90
47921;DHT22;33686;48.770;9.186;2023-03-21T21:38:12;11.80;99.90
47921;DHT22;33686;48.770;9.186;2023-03-21T21:40:38;11.80;99.90
47921;DHT22;33686;48.770;9.186;2023-03-21T21:43:04;11.90;99.90
47921;DHT22;33686;48.770;9.186;2023-03-21T21:45:29;11.90;99.90
47921;DHT22;33686;48.770;9.186;2023-03-21T21:47:55;11.90;99.90
47921;DHT22;33686;48.770;9.186;2023-03-21T21:50:21;12.00;99.90
47921;DHT22;33686;48.770;9.186;2023-03-21T21:52:47;12.00;99.90
47921;DHT22;33686;48.770;9.186;2023-03-21T21:55:18;12.00;99.90
47921;DHT22;33686;48.770;9.186;2023-03-21T21:57:44;12.10;99.90
47921;DHT22;33686;48.770;9.186;2023-03-21T22:00:15;12.10;99.90
47921;DHT22;33686;48.770;9.186;2023-03-21T22:02:41;12.10;99.90
47921;DHT22;33686;48.770;9.186;2023-03-21T22:05:07;12.10;99.90
47921;DHT22;33686;48.770;9.186;2023-03-21T22:07:33;12.20;99.90
47921;DHT22;33686;48.770;9.186;2023-03-21T22:09:58;12.20;99.90
47921;DHT22;33686;48.770;9.186;2023-03-21T22:12:24;12.20;99.90
47921;DHT22;33686;48.770;9.186;2023-03-21T22:14:50;12.10;99.90
47921;DHT22;33686;48.770;9.186;2023-03-21T22:17:15;12.10;99.90
47921;DHT22;33686;48.770;9.186;2023-03-21T22:19:41;12.10;99.90
47921;DHT22;33686;48.770;9.186;2023-03-21T22:22:06;12.10;99.90
47921;DHT22;33686;48.770;9.186;2023-03-21T22:24:32;12.10;99.90
47921;DHT22;33686;48.770;9.186;2023-03-21T22:26:57;12.00;99.90
47921;DHT22;33686;48.770;9.186;2023-03-21T22:29:24;12.00;99.90
47921;DHT22;33686;48.770;9.186;2023-03-21T22:31:50;12.00;99.90
47921;DHT22;33686;48.770;9.186;2023-03-21T22:34:21;12.00;99.90
47921;DHT22;33686;48.770;9.186;2023-03-21T22:36:47;12.00;99.90
47921;DHT22;33686;48.770;9.186;2023-03-21T22:39:15;12.00;99.90
47921;DHT22;33686;48.770;9.186;2023-03-21T22:41:41;11.80;99.90
47921;DHT22;33686;48.770;9.186;2023-03-21T22:44:06;11.80;99.90
47921;DHT22;33686;48.770;9.186;2023-03-21T22:46:32;11.80;99.90
47921;DHT22;33686;48.770;9.186;2023-03-21T22:48:59;11.80;99.90
47921;DHT22;33686;48.770;9.186;2023-03-21T22:51:24;11.80;99.90
47921;DHT22;33686;48.770;9.186;2023-03-21T22:53:50;11.70;99.90
47921;DHT22;33686;48.770;9.186;2023-03-21T22:56:16;11.80;99.90
47921;DHT22;33686;48.770;9.186;2023-03-21T22:58:41;11.70;99.90
